This is the latest recevied weather packets stored in our database for station/object W4UWO. If no packets are shown the sender has not sent any weather packets the latest 10 day(s).
| Time | Temp. | Humidity | Pressure | Rain* | Wind** | Luminosity | Snow |
|---|---|---|---|---|---|---|---|
| 1788496643 | 27.22° C | 80% | 1016.9 hPa | 0 mm | - | 0 W/m² | - |
| 1788496339 | 27.22° C | 80% | 1016.7 hPa | 0 mm | - | 0 W/m² | - |
| 1788496034 | 27.22° C | 80% | 1016.8 hPa | 0 mm | - | 0 W/m² | - |
| 1788495731 | 27.78° C | 79% | 1016.9 hPa | 0 mm | - | 0 W/m² | - |
| 1788495430 | 27.78° C | 78% | 1017 hPa | 0 mm | - | 0 W/m² | - |
| 1788495127 | 27.78° C | 78% | 1017.1 hPa | 0 mm | - | 0 W/m² | - |
| 1788494822 | 28.33° C | 79% | 1016.9 hPa | 0 mm | - | 0 W/m² | - |
| 1788494518 | 28.33° C | 78% | 1016.8 hPa | 0 mm | - | 0 W/m² | - |
| 1788494213 | 28.33° C | 78% | 1017 hPa | 0 mm | - | 0 W/m² | - |
| 1788493908 | 27.78° C | 79% | 1016.9 hPa | 0 mm | - | 0 W/m² | - |
| 1788493607 | 27.78° C | 79% | 1016.9 hPa | 0 mm | - | 0 W/m² | - |
| 1788493303 | 27.78° C | 79% | 1017 hPa | 0 mm | - | 0 W/m² | - |
| 1788492999 | 28.33° C | 78% | 1017 hPa | 0 mm | - | 0 W/m² | - |
| 1788492696 | 28.33° C | 78% | 1017.1 hPa | 0 mm | - | 0 W/m² | - |
| 1788492392 | 28.33° C | 77% | 1017 hPa | 0 mm | - | 0 W/m² | - |
| 1788492090 | 28.33° C | 78% | 1017.1 hPa | 0 mm | - | 0 W/m² | - |
| 1788491790 | 28.33° C | 78% | 1017.2 hPa | 0 mm | - | 0 W/m² | - |
| 1788491486 | 28.33° C | 78% | 1017.3 hPa | 0 mm | - | 0 W/m² | - |
| 1788491182 | 28.89° C | 75% | 1017.1 hPa | 0 mm | - | 0 W/m² | - |
| 1788490876 | 28.33° C | 76% | 1017 hPa | 0 mm | - | 0 W/m² | - |
| 1788490573 | 28.89° C | 74% | 1017.2 hPa | 0 mm | - | 0 W/m² | - |
| 1788490273 | 29.44° C | 70% | 1017.2 hPa | 0 mm | - | 0 W/m² | - |
| 1788489968 | 29.44° C | 70% | 1017 hPa | 0 mm | - | 0 W/m² | - |
| 1788489664 | 28.89° C | 71% | 1017 hPa | 0 mm | - | 0 W/m² | - |
| 1788489360 | 29.44° C | 71% | 1016.9 hPa | 0 mm | - | 0 W/m² | - |
* Rain latest hour (hover to see other rain measurements)
** Current wind speed in m/s (hover to see current wind gust speed)